<?xml version="1.0" encoding="UTF-8" standalone="no" ?>
<gpx xmlns="http://www.topografix.com/GPX/1/1" xmlns:xsi="http://www.w3.org/2001/XMLSchema-instance" xsi:schemaLocation="http://www.topografix.com/GPX/1/1 http://www.topografix.com/GPX/1/1/gpx.xsd" version="1.1" creator="VisuGPX - https://www.visugpx.com">
  <metadata>
    <name>luzech 6 descentes</name>
    <desc><![CDATA[parcours typé enduro avec de belles descentes]]></desc>
  </metadata>
  <trk>
    <name><![CDATA[2014-04-01-08-18-57]]></name>
    <trkseg>
      <trkpt lat="44.44252" lon="1.31951">
        <ele>289.466</ele>
        <time>2014-04-01T12:14:44Z</time>
      </trkpt>
      <trkpt lat="44.44263" lon="1.31963">
        <ele>288.465</ele>
        <time>2014-04-01T12:14:48Z</time>
      </trkpt>
      <trkpt lat="44.44282" lon="1.31978">
        <ele>286.694</ele>
        <time>2014-04-01T12:14:52Z</time>
      </trkpt>
      <trkpt lat="44.44301" lon="1.3199">
        <ele>284.854</ele>
        <time>2014-04-01T12:14:55Z</time>
      </trkpt>
      <trkpt lat="44.44323" lon="1.32019">
        <ele>283.845</ele>
        <time>2014-04-01T12:14:59Z</time>
      </trkpt>
      <trkpt lat="44.44327" lon="1.32027">
        <ele>283.785</ele>
        <time>2014-04-01T12:15:00Z</time>
      </trkpt>
      <trkpt lat="44.44341" lon="1.32066">
        <ele>282.274</ele>
        <time>2014-04-01T12:15:05Z</time>
      </trkpt>
      <trkpt lat="44.44349" lon="1.32083">
        <ele>279.982</ele>
        <time>2014-04-01T12:15:07Z</time>
      </trkpt>
      <trkpt lat="44.44373" lon="1.32103">
        <ele>279.847</ele>
        <time>2014-04-01T12:15:11Z</time>
      </trkpt>
      <trkpt lat="44.44388" lon="1.32096">
        <ele>280.949</ele>
        <time>2014-04-01T12:15:14Z</time>
      </trkpt>
      <trkpt lat="44.44391" lon="1.32092">
        <ele>281.409</ele>
        <time>2014-04-01T12:15:15Z</time>
      </trkpt>
      <trkpt lat="44.44414" lon="1.32059">
        <ele>285.049</ele>
        <time>2014-04-01T12:15:23Z</time>
      </trkpt>
      <trkpt lat="44.44432" lon="1.32035">
        <ele>287.708</ele>
        <time>2014-04-01T12:15:30Z</time>
      </trkpt>
      <trkpt lat="44.44453" lon="1.32006">
        <ele>289.708</ele>
        <time>2014-04-01T12:15:39Z</time>
      </trkpt>
      <trkpt lat="44.44468" lon="1.31986">
        <ele>291.688</ele>
        <time>2014-04-01T12:15:46Z</time>
      </trkpt>
      <trkpt lat="44.44485" lon="1.3196">
        <ele>291.697</ele>
        <time>2014-04-01T12:15:54Z</time>
      </trkpt>
      <trkpt lat="44.44498" lon="1.31932">
        <ele>291.387</ele>
        <time>2014-04-01T12:16:01Z</time>
      </trkpt>
      <trkpt lat="44.44512" lon="1.31906">
        <ele>290.337</ele>
        <time>2014-04-01T12:16:07Z</time>
      </trkpt>
      <trkpt lat="44.44535" lon="1.31884">
        <ele>289.557</ele>
        <time>2014-04-01T12:16:13Z</time>
      </trkpt>
      <trkpt lat="44.44553" lon="1.31874">
        <ele>289.758</ele>
        <time>2014-04-01T12:16:17Z</time>
      </trkpt>
      <trkpt lat="44.44591" lon="1.31854">
        <ele>288.607</ele>
        <time>2014-04-01T12:16:25Z</time>
      </trkpt>
      <trkpt lat="44.44597" lon="1.31851">
        <ele>288.467</ele>
        <time>2014-04-01T12:16:26Z</time>
      </trkpt>
      <trkpt lat="44.44636" lon="1.31847">
        <ele>284.133</ele>
        <time>2014-04-01T12:16:31Z</time>
      </trkpt>
      <trkpt lat="44.44681" lon="1.31858">
        <ele>281.636</ele>
        <time>2014-04-01T12:16:36Z</time>
      </trkpt>
      <trkpt lat="44.44723" lon="1.31867">
        <ele>280.496</ele>
        <time>2014-04-01T12:16:41Z</time>
      </trkpt>
      <trkpt lat="44.44754" lon="1.31859">
        <ele>279.607</ele>
        <time>2014-04-01T12:16:45Z</time>
      </trkpt>
      <trkpt lat="44.44793" lon="1.31833">
        <ele>279.478</ele>
        <time>2014-04-01T12:16:51Z</time>
      </trkpt>
      <trkpt lat="44.44804" lon="1.31825">
        <ele>279.798</ele>
        <time>2014-04-01T12:16:53Z</time>
      </trkpt>
      <trkpt lat="44.4482" lon="1.31817">
        <ele>281.008</ele>
        <time>2014-04-01T12:16:56Z</time>
      </trkpt>
      <trkpt lat="44.44841" lon="1.3181">
        <ele>281.098</ele>
        <time>2014-04-01T12:17:00Z</time>
      </trkpt>
      <trkpt lat="44.44863" lon="1.31797">
        <ele>280.588</ele>
        <time>2014-04-01T12:17:04Z</time>
      </trkpt>
      <trkpt lat="44.44906" lon="1.31765">
        <ele>281.309</ele>
        <time>2014-04-01T12:17:13Z</time>
      </trkpt>
      <trkpt lat="44.44948" lon="1.31745">
        <ele>281.71</ele>
        <time>2014-04-01T12:17:22Z</time>
      </trkpt>
      <trkpt lat="44.44995" lon="1.31732">
        <ele>281.339</ele>
        <time>2014-04-01T12:17:33Z</time>
      </trkpt>
      <trkpt lat="44.45003" lon="1.31732">
        <ele>282.039</ele>
        <time>2014-04-01T12:17:35Z</time>
      </trkpt>
      <trkpt lat="44.45012" lon="1.31731">
        <ele>282.869</ele>
        <time>2014-04-01T12:17:37Z</time>
      </trkpt>
      <trkpt lat="44.45027" lon="1.31716">
        <ele>283.79</ele>
        <time>2014-04-01T12:17:42Z</time>
      </trkpt>
      <trkpt lat="44.45046" lon="1.31684">
        <ele>284.859</ele>
        <time>2014-04-01T12:17:50Z</time>
      </trkpt>
      <trkpt lat="44.45055" lon="1.31663">
        <ele>285.519</ele>
        <time>2014-04-01T12:17:56Z</time>
      </trkpt>
      <trkpt lat="44.45057" lon="1.31632">
        <ele>285.128</ele>
        <time>2014-04-01T12:18:02Z</time>
      </trkpt>
      <trkpt lat="44.45058" lon="1.31626">
        <ele>285.048</ele>
        <time>2014-04-01T12:18:03Z</time>
      </trkpt>
      <trkpt lat="44.45067" lon="1.31596">
        <ele>284.638</ele>
        <time>2014-04-01T12:18:08Z</time>
      </trkpt>
      <trkpt lat="44.45069" lon="1.31557">
        <ele>283.728</ele>
        <time>2014-04-01T12:18:14Z</time>
      </trkpt>
      <trkpt lat="44.45066" lon="1.31503">
        <ele>284.6</ele>
        <time>2014-04-01T12:18:22Z</time>
      </trkpt>
      <trkpt lat="44.45063" lon="1.31459">
        <ele>286.5</ele>
        <time>2014-04-01T12:18:30Z</time>
      </trkpt>
      <trkpt lat="44.45066" lon="1.31423">
        <ele>286.439</ele>
        <time>2014-04-01T12:18:36Z</time>
      </trkpt>
      <trkpt lat="44.45072" lon="1.31372">
        <ele>286.559</ele>
        <time>2014-04-01T12:18:45Z</time>
      </trkpt>
      <trkpt lat="44.45079" lon="1.31333">
        <ele>286.479</ele>
        <time>2014-04-01T12:18:52Z</time>
      </trkpt>
      <trkpt lat="44.45086" lon="1.31282">
        <ele>286.939</ele>
        <time>2014-04-01T12:19:01Z</time>
      </trkpt>
      <trkpt lat="44.45101" lon="1.31236">
        <ele>286.899</ele>
        <time>2014-04-01T12:19:09Z</time>
      </trkpt>
      <trkpt lat="44.45107" lon="1.31218">
        <ele>286.769</ele>
        <time>2014-04-01T12:19:12Z</time>
      </trkpt>
      <trkpt lat="44.45127" lon="1.3118">
        <ele>285.288</ele>
        <time>2014-04-01T12:19:20Z</time>
      </trkpt>
      <trkpt lat="44.45137" lon="1.31161">
        <ele>283.918</ele>
        <time>2014-04-01T12:19:25Z</time>
      </trkpt>
      <trkpt lat="44.45144" lon="1.31147">
        <ele>282.767</ele>
        <time>2014-04-01T12:19:29Z</time>
      </trkpt>
      <trkpt lat="44.45159" lon="1.31121">
        <ele>279.886</ele>
        <time>2014-04-01T12:19:34Z</time>
      </trkpt>
      <trkpt lat="44.45166" lon="1.31111">
        <ele>278.024</ele>
        <time>2014-04-01T12:19:36Z</time>
      </trkpt>
      <trkpt lat="44.45175" lon="1.31083">
        <ele>274.184</ele>
        <time>2014-04-01T12:19:40Z</time>
      </trkpt>
      <trkpt lat="44.45171" lon="1.31054">
        <ele>270.364</ele>
        <time>2014-04-01T12:19:44Z</time>
      </trkpt>
      <trkpt lat="44.4517" lon="1.31045">
        <ele>269.023</ele>
        <time>2014-04-01T12:19:45Z</time>
      </trkpt>
      <trkpt lat="44.45164" lon="1.31002">
        <ele>262.233</ele>
        <time>2014-04-01T12:19:51Z</time>
      </trkpt>
      <trkpt lat="44.45163" lon="1.30999">
        <ele>261.423</ele>
        <time>2014-04-01T12:19:52Z</time>
      </trkpt>
      <trkpt lat="44.45185" lon="1.3099">
        <ele>254.059</ele>
        <time>2014-04-01T12:20:22Z</time>
      </trkpt>
      <trkpt lat="44.45185" lon="1.30991">
        <ele>254.024</ele>
        <time>2014-04-01T12:20:23Z</time>
      </trkpt>
    </trkseg>
  </trk>
</gpx>